Time;durP1;ratioP1;P1;durP2;ratioP2;P2;SDS_P1;SDS_P2;PMS_P1;PMS_P2;Temp;Humidity;BMP_temperature;BMP_pressure;BME280_temperature;BME280_humidity;BME280_pressure;Samples;Min_cycle;Max_cycle;Signal;HPM_P1;HPM_P2
2023/08/01 00:02:50;;;;;;;3.03;1.33;;;;;;;15.11;100.00;99713.75;10462915;28;20127;-76
2023/08/01 00:07:52;;;;;;;4.18;1.67;;;;;;;15.17;100.00;99715.56;10476252;28;20086;-76
2023/08/01 00:12:52;;;;;;;2.67;1.40;;;;;;;15.23;100.00;99696.31;10495811;28;20062;-76
2023/08/01 00:17:53;;;;;;;2.95;1.40;;;;;;;15.27;100.00;99677.88;10486615;28;20055;-76
2023/08/01 00:22:53;;;;;;;5.65;3.00;;;;;;;15.30;100.00;99678.78;10483976;28;20037;-75
2023/08/01 00:27:54;;;;;;;6.13;2.50;;;;;;;15.33;100.00;99681.44;10488559;28;20040;-75
2023/08/01 00:32:54;;;;;;;5.43;2.17;;;;;;;15.35;100.00;99667.44;10519105;27;20042;-76
2023/08/01 00:37:55;;;;;;;4.85;2.47;;;;;;;15.38;100.00;99661.28;10455062;28;20122;-76
2023/08/01 00:42:56;;;;;;;9.07;3.55;;;;;;;15.37;100.00;99664.78;10483886;28;20559;-75
2023/08/01 00:47:57;;;;;;;8.50;3.40;;;;;;;15.37;100.00;99659.50;10486824;28;20505;-77
2023/08/01 00:52:57;;;;;;;6.78;4.18;;;;;;;15.32;100.00;99666.50;10483647;28;20116;-77
2023/08/01 00:57:58;;;;;;;8.00;3.80;;;;;;;15.29;100.00;99645.38;10463369;28;20056;-76
2023/08/01 01:02:58;;;;;;;7.07;4.72;;;;;;;15.27;100.00;99633.06;10494223;28;20128;-76
2023/08/01 01:07:59;;;;;;;8.90;5.10;;;;;;;15.24;100.00;99654.13;10486476;28;20047;-76
2023/08/01 01:12:59;;;;;;;11.23;6.00;;;;;;;15.21;100.00;99638.28;10468336;28;20511;-77
2023/08/01 01:18:00;;;;;;;11.32;7.05;;;;;;;15.20;100.00;99620.72;10482411;28;20395;-77
2023/08/01 01:23:00;;;;;;;16.15;7.35;;;;;;;15.14;100.00;99631.19;10485678;28;20055;-76
2023/08/01 01:28:01;;;;;;;14.02;6.97;;;;;;;15.05;100.00;99645.19;10466597;28;20086;-77
2023/08/01 01:33:01;;;;;;;9.40;6.18;;;;;;;14.98;100.00;99638.97;10482739;28;20036;-76
2023/08/01 01:38:05;;;;;;;13.05;8.32;;;;;;;14.94;100.00;99628.38;10484555;28;20040;-76
2023/08/01 01:43:06;;;;;;;17.92;9.55;;;;;;;14.83;100.00;99621.25;10478456;28;20123;-76
2023/08/01 01:48:06;;;;;;;13.77;9.13;;;;;;;14.74;100.00;99612.38;10485505;28;20041;-77
2023/08/01 01:53:07;;;;;;;21.38;11.95;;;;;;;14.62;100.00;99623.63;10484297;28;20116;-77
2023/08/01 01:58:07;;;;;;;18.45;12.45;;;;;;;14.37;100.00;99634.75;10481002;28;20048;-77
2023/08/01 02:03:10;;;;;;;17.73;13.30;;;;;;;14.16;100.00;99627.47;10477509;28;20157;-77
2023/08/01 02:08:10;;;;;;;26.00;14.95;;;;;;;13.98;100.00;99624.59;10442028;28;20053;-77
2023/08/01 02:13:11;;;;;;;22.23;12.63;;;;;;;13.88;100.00;99626.19;10442518;28;20029;-77
2023/08/01 02:18:11;;;;;;;29.35;16.67;;;;;;;13.74;100.00;99618.97;10442227;28;20040;-76
2023/08/01 02:23:12;;;;;;;22.25;14.35;;;;;;;13.60;100.00;99634.56;10435770;28;20037;-77
2023/08/01 02:28:12;;;;;;;27.20;14.32;;;;;;;13.47;100.00;99628.22;10440746;28;20112;-77
2023/08/01 02:33:13;;;;;;;21.20;12.98;;;;;;;13.39;100.00;99626.31;10441685;28;20041;-77
2023/08/01 02:38:13;;;;;;;24.60;13.57;;;;;;;13.34;100.00;99641.97;10441544;28;20118;-77
2023/08/01 02:43:14;;;;;;;33.33;16.33;;;;;;;13.44;100.00;99648.31;10440778;28;20037;-77
2023/08/01 02:48:15;;;;;;;32.53;17.23;;;;;;;13.54;100.00;99646.72;10429101;28;20175;-77
2023/08/01 02:53:16;;;;;;;36.87;19.53;;;;;;;13.67;100.00;99646.03;10418562;28;20040;-77
2023/08/01 02:58:16;;;;;;;44.15;22.88;;;;;;;13.62;100.00;99648.63;10438918;28;20477;-77
2023/08/01 03:03:17;;;;;;;44.22;24.42;;;;;;;13.45;100.00;99661.47;10451956;28;20028;-76
2023/08/01 03:08:18;;;;;;;39.67;24.13;;;;;;;13.30;100.00;99663.81;10426140;28;20076;-76
2023/08/01 03:13:19;;;;;;;45.05;24.65;;;;;;;13.23;100.00;99654.94;10434714;28;20065;-77
2023/08/01 03:18:19;;;;;;;42.67;25.17;;;;;;;13.20;100.00;99657.53;10436927;28;20045;-76
2023/08/01 03:23:20;;;;;;;50.60;26.25;;;;;;;13.25;100.00;99663.75;10433797;28;20380;-76
2023/08/01 03:28:20;;;;;;;50.53;26.92;;;;;;;13.27;100.00;99666.38;10439403;28;20120;-77
2023/08/01 03:33:21;;;;;;;43.50;26.92;;;;;;;13.30;100.00;99669.06;10437151;28;20072;-77
2023/08/01 03:38:21;;;;;;;51.28;26.23;;;;;;;13.37;100.00;99673.56;10440719;28;20048;-76
2023/08/01 03:43:23;;;;;;;42.10;23.52;;;;;;;13.43;100.00;99673.72;10438200;28;20073;-77
2023/08/01 03:48:24;;;;;;;43.63;23.85;;;;;;;13.44;100.00;99671.97;10417029;28;20033;-77
2023/08/01 03:53:24;;;;;;;43.10;23.45;;;;;;;13.47;100.00;99670.28;10442035;28;20040;-77
2023/08/01 03:58:25;;;;;;;47.08;25.67;;;;;;;13.50;100.00;99678.19;10434636;28;20033;-77
2023/08/01 04:03:25;;;;;;;45.88;24.85;;;;;;;13.43;100.00;99664.94;10439240;28;20455;-77
2023/08/01 04:08:26;;;;;;;40.15;24.15;;;;;;;13.42;100.00;99663.19;10443021;28;20048;-77
2023/08/01 04:13:26;;;;;;;45.22;22.75;;;;;;;13.44;100.00;99659.69;10446155;28;20471;-77
2023/08/01 04:18:27;;;;;;;44.97;23.88;;;;;;;13.46;100.00;99672.88;10445189;28;20053;-77
2023/08/01 04:23:27;;;;;;;40.63;23.17;;;;;;;13.51;100.00;99664.19;10444738;28;20040;-78
2023/08/01 04:28:28;;;;;;;39.55;21.17;;;;;;;13.47;100.00;99672.91;10438453;28;20045;-77
2023/08/01 04:33:28;;;;;;;35.17;23.30;;;;;;;13.51;100.00;99666.84;10481199;28;20568;-77
2023/08/01 04:38:29;;;;;;;32.47;19.17;;;;;;;13.58;100.00;99667.84;10485722;28;20032;-76
2023/08/01 04:43:29;;;;;;;36.40;18.60;;;;;;;13.62;100.00;99674.00;10481845;28;20039;-76
2023/08/01 04:48:30;;;;;;;31.63;17.38;;;;;;;13.68;100.00;99673.25;10478265;28;20071;-76
2023/08/01 04:53:30;;;;;;;30.15;16.88;;;;;;;13.72;100.00;99675.06;10438678;28;20544;-76
2023/08/01 04:58:31;;;;;;;24.80;14.15;;;;;;;13.72;100.00;99669.78;10436336;28;20037;-76
2023/08/01 05:03:32;;;;;;;28.08;14.68;;;;;;;13.71;100.00;99676.78;10443064;28;20511;-77
2023/08/01 05:08:33;;;;;;;26.60;14.23;;;;;;;13.72;100.00;99673.28;10442818;28;20119;-77
2023/08/01 05:13:33;;;;;;;23.17;12.73;;;;;;;13.78;100.00;99672.53;10442332;28;20041;-77
2023/08/01 05:18:34;;;;;;;21.50;12.63;;;;;;;13.97;100.00;99680.69;10443220;28;20119;-77
2023/08/01 05:23:34;;;;;;;25.70;10.80;;;;;;;14.30;100.00;99698.69;10444051;28;20133;-77
2023/08/01 05:28:35;;;;;;;29.30;11.65;;;;;;;14.40;100.00;99702.34;10443971;28;20036;-78
2023/08/01 05:33:35;;;;;;;16.65;9.68;;;;;;;14.38;100.00;99697.03;10425532;28;20046;-78
2023/08/01 05:38:36;;;;;;;23.42;10.73;;;;;;;14.48;100.00;99703.31;10438967;28;20117;-77
2023/08/01 05:43:36;;;;;;;22.38;13.00;;;;;;;14.63;100.00;99693.84;10443687;28;20137;-77
2023/08/01 05:48:37;;;;;;;40.92;23.45;;;;;;;14.60;100.00;99697.31;10434825;28;20055;-79
2023/08/01 05:53:38;;;;;;;24.35;11.20;;;;;;;14.70;100.00;99697.47;10437753;28;21008;-77
2023/08/01 05:58:38;;;;;;;18.63;10.90;;;;;;;14.79;100.00;99694.94;10439781;28;20056;-76
2023/08/01 06:03:39;;;;;;;18.75;11.07;;;;;;;14.72;100.00;99704.53;10437225;28;20090;-77
2023/08/01 06:08:39;;;;;;;18.60;10.85;;;;;;;14.96;100.00;99713.59;10439946;28;20610;-76
2023/08/01 06:13:40;;;;;;;15.70;8.98;;;;;;;15.53;100.00;99718.56;10438262;28;20171;-77
2023/08/01 06:18:40;;;;;;;19.92;10.57;;;;;;;15.68;100.00;99718.69;10442056;28;20576;-76
2023/08/01 06:23:41;;;;;;;16.48;9.88;;;;;;;16.08;100.00;99698.78;10439939;28;20131;-77
2023/08/01 06:28:42;;;;;;;20.75;11.35;;;;;;;15.78;100.00;99711.72;10439309;28;20044;-77
2023/08/01 06:33:42;;;;;;;18.35;12.02;;;;;;;15.81;100.00;99724.94;10437963;28;20032;-77
2023/08/01 06:38:43;;;;;;;23.40;10.60;;;;;;;15.54;100.00;99730.88;10433268;28;20102;-77
2023/08/01 06:43:43;;;;;;;16.42;9.70;;;;;;;15.50;100.00;99737.84;10417875;28;20037;-77
2023/08/01 06:48:45;;;;;;;20.05;11.82;;;;;;;15.31;100.00;99755.25;10489752;28;20045;-76
2023/08/01 06:53:46;;;;;;;16.83;9.20;;;;;;;15.30;100.00;99768.41;10442770;28;20055;-77
2023/08/01 06:58:46;;;;;;;19.35;11.13;;;;;;;15.75;100.00;99755.66;10414897;28;20423;-76
2023/08/01 07:03:47;;;;;;;19.58;10.88;;;;;;;15.65;100.00;99745.03;10441844;28;20053;-76
2023/08/01 07:08:47;;;;;;;17.35;10.70;;;;;;;15.60;100.00;99770.47;10440923;28;20552;-76
2023/08/01 07:13:48;;;;;;;39.78;13.85;;;;;;;15.57;100.00;99768.69;10440617;28;20044;-76
2023/08/01 07:18:50;;;;;;;24.92;12.95;;;;;;;16.02;100.00;99781.41;10435764;28;20045;-76
2023/08/01 07:23:51;;;;;;;12.75;7.50;;;;;;;17.02;100.00;99752.06;10438733;28;20037;-77
2023/08/01 07:28:51;;;;;;;20.35;7.90;;;;;;;18.27;100.00;99707.19;10465273;28;20048;-77
2023/08/01 07:33:52;;;;;;;12.07;7.15;;;;;;;17.56;100.00;99724.00;10489832;28;20135;-77
2023/08/01 07:38:53;;;;;;;18.30;9.40;;;;;;;17.32;100.00;99760.09;10480323;28;20107;-76
2023/08/01 07:43:53;;;;;;;12.43;7.03;;;;;;;17.18;100.00;99778.56;10490868;28;20051;-78
2023/08/01 07:48:54;;;;;;;17.00;8.30;;;;;;;18.04;100.00;99788.44;10489406;28;20071;-78
2023/08/01 07:53:54;;;;;;;11.02;6.68;;;;;;;18.63;100.00;99758.31;10478950;28;20048;-78
2023/08/01 07:58:55;;;;;;;13.85;7.18;;;;;;;17.88;100.00;99784.84;10435665;28;20416;-77
2023/08/01 08:03:56;;;;;;;10.10;6.30;;;;;;;17.53;100.00;99800.72;10433466;28;20057;-78
2023/08/01 08:08:56;;;;;;;14.77;6.85;;;;;;;18.97;100.00;99787.38;10447333;28;20066;-78
2023/08/01 08:13:57;;;;;;;11.00;6.80;;;;;;;18.54;100.00;99775.13;10441945;28;20036;-79
2023/08/01 08:18:57;;;;;;;21.63;6.50;;;;;;;18.04;100.00;99796.38;10432007;28;20124;-77
2023/08/01 08:23:58;;;;;;;10.18;7.45;;;;;;;17.81;100.00;99819.28;10431056;28;21281;-77
2023/08/01 08:28:59;;;;;;;13.13;7.20;;;;;;;17.46;100.00;99811.28;10431375;28;20099;-77
2023/08/01 08:33:59;;;;;;;12.02;7.13;;;;;;;17.46;100.00;99824.50;10433791;28;20067;-76
2023/08/01 08:39:00;;;;;;;11.20;6.63;;;;;;;18.23;100.00;99816.66;10444066;28;20539;-77
2023/08/01 08:44:01;;;;;;;18.43;6.67;;;;;;;19.09;100.00;99789.09;10437868;28;20545;-77
2023/08/01 08:49:02;;;;;;;11.47;5.77;;;;;;;20.76;100.00;99762.97;10401411;28;20131;-76
2023/08/01 08:54:03;;;;;;;9.30;4.87;;;;;;;20.65;100.00;99778.16;10441220;28;20392;-77
2023/08/01 08:59:03;;;;;;;12.00;6.53;;;;;;;21.64;100.00;99771.59;10431152;28;20052;-79
2023/08/01 09:04:04;;;;;;;8.70;4.97;;;;;;;22.70;100.00;99764.44;10406652;28;20040;-79
2023/08/01 09:09:09;;;;;;;8.00;4.40;;;;;;;21.67;100.00;99774.22;10426304;28;20071;-78
2023/08/01 09:14:10;;;;;;;13.02;6.30;;;;;;;22.43;100.00;99775.59;10464572;28;20036;-77
2023/08/01 09:19:13;;;;;;;8.40;4.43;;;;;;;21.46;100.00;99787.81;10482244;28;20036;-78
2023/08/01 09:24:20;;;;;;;10.32;6.10;;;;;;;20.52;100.00;99782.75;10484492;28;20040;-78
2023/08/01 09:29:20;;;;;;;9.05;4.53;;;;;;;20.93;100.00;99793.81;10484277;28;20463;-78
2023/08/01 09:34:22;;;;;;;7.90;4.03;;;;;;;20.44;100.00;99793.44;10485478;28;20119;-79
2023/08/01 09:39:23;;;;;;;16.65;6.05;;;;;;;20.13;100.00;99812.34;10476131;28;20033;-77
2023/08/01 09:44:23;;;;;;;11.38;6.00;;;;;;;19.76;100.00;99817.88;10483769;28;20036;-77
2023/08/01 09:49:24;;;;;;;8.40;4.57;;;;;;;19.13;100.00;99824.44;10466484;28;20128;-77
2023/08/01 09:54:25;;;;;;;10.05;6.60;;;;;;;19.78;100.00;99821.41;10466743;28;20101;-78
2023/08/01 09:59:25;;;;;;;11.23;4.88;;;;;;;20.01;100.00;99809.78;10433650;28;20693;-77
2023/08/01 10:04:30;;;;;;;10.47;5.83;;;;;;;19.27;100.00;99822.59;10443203;28;20033;-78
2023/08/01 10:09:31;;;;;;;6.55;4.47;;;;;;;19.45;100.00;99828.69;10410672;28;20436;-79
2023/08/01 10:14:35;;;;;;;10.50;4.40;;;;;;;19.46;100.00;99835.75;10424931;28;20041;-79
2023/08/01 10:19:36;;;;;;;7.72;4.70;;;;;;;18.67;100.00;99858.09;10444545;28;20106;-79
2023/08/01 10:24:36;;;;;;;9.85;5.05;;;;;;;17.64;100.00;99865.09;10416665;28;20044;-81
2023/08/01 10:29:37;;;;;;;12.98;5.65;;;;;;;17.61;100.00;99878.31;10439311;28;20084;-79
2023/08/01 10:34:37;;;;;;;9.32;4.95;;;;;;;17.65;100.00;99885.41;10412874;28;20744;-80
2023/08/01 10:39:38;;;;;;;8.63;4.47;;;;;;;17.02;100.00;99910.66;10429051;28;20499;-79
2023/08/01 10:44:45;;;;;;;8.10;5.03;;;;;;;16.61;100.00;99919.16;10399950;28;20545;-78
2023/08/01 10:49:45;;;;;;;18.77;7.47;;;;;;;16.58;100.00;99929.72;10438480;28;20450;-79
2023/08/01 10:54:46;;;;;;;7.63;5.30;;;;;;;16.84;100.00;99918.44;10435837;28;20040;-79
2023/08/01 10:59:47;;;;;;;10.73;4.93;;;;;;;17.48;100.00;99906.47;10432248;28;20041;-79
2023/08/01 11:05:01;;;;;;;7.32;3.97;;;;;;;18.11;100.00;99892.56;10429631;28;20122;-80
2023/08/01 11:10:10;;;;;;;5.60;4.03;;;;;;;18.61;100.00;99896.13;10482807;28;20044;-82
2023/08/01 11:15:11;;;;;;;10.27;5.15;;;;;;;18.16;100.00;99898.75;10489643;28;20076;-77
2023/08/01 11:20:12;;;;;;;7.80;3.97;;;;;;;16.84;100.00;99926.38;10468795;28;20506;-79
2023/08/01 11:25:12;;;;;;;7.28;4.10;;;;;;;16.21;100.00;99951.41;10421618;28;20044;-79
2023/08/01 11:30:13;;;;;;;6.90;4.55;;;;;;;16.31;100.00;99939.16;10421554;28;20492;-79
2023/08/01 11:35:18;;;;;;;6.45;4.45;;;;;;;17.79;100.00;99924.25;10435053;28;20029;-80
2023/08/01 11:40:18;;;;;;;5.97;4.18;;;;;;;21.43;100.00;99865.94;10418300;28;20051;-81
2023/08/01 11:45:20;;;;;;;6.68;2.47;;;;;;;24.44;100.00;99876.31;10428893;28;20043;-80
2023/08/01 11:50:24;;;;;;;7.18;3.30;;;;;;;24.63;100.00;99873.16;10439886;28;20041;-79
2023/08/01 11:55:26;;;;;;;9.15;3.25;;;;;;;23.97;100.00;99881.88;10446848;28;20043;-78
2023/08/01 12:00:27;;;;;;;;;;;;;;;24.13;100.00;99892.22;10427866;28;20558;-78
2023/08/01 12:05:28;;;;;;;11.57;4.40;;;;;;;24.87;100.00;99890.38;10417047;28;20105;-77
2023/08/01 12:10:37;;;;;;;7.43;2.80;;;;;;;25.01;100.00;99883.75;10429753;28;20441;-77
2023/08/01 12:15:37;;;;;;;17.55;5.70;;;;;;;25.26;100.00;99883.06;10467415;28;20056;-79
2023/08/01 12:20:38;;;;;;;6.93;4.20;;;;;;;25.16;100.00;99896.72;10471757;28;20048;-79
2023/08/01 12:25:38;;;;;;;6.43;3.57;;;;;;;26.18;100.00;99879.41;10467660;28;20048;-78
2023/08/01 12:30:41;;;;;;;7.67;2.90;;;;;;;25.72;100.00;99894.25;10441777;28;20044;-78
2023/08/01 12:35:41;;;;;;;6.88;2.60;;;;;;;24.96;100.00;99893.72;10432234;28;20045;-77
2023/08/01 12:40:43;;;;;;;7.13;3.03;;;;;;;23.74;100.00;99906.44;10449318;28;20041;-80
2023/08/01 12:45:44;;;;;;;29.87;3.00;;;;;;;21.93;100.00;99914.09;10461171;28;20067;-77
2023/08/01 12:50:48;;;;;;;9.37;2.27;;;;;;;22.79;100.00;99905.63;10422729;28;20029;-78
2023/08/01 12:55:50;;;;;;;9.27;1.73;;;;;;;24.98;100.00;99910.59;10408392;28;21905;-77
2023/08/01 13:00:50;;;;;;;9.40;2.08;;;;;;;26.03;97.27;99914.72;10433767;28;20041;-80
2023/08/01 13:05:52;;;;;;;4.57;2.50;;;;;;;25.18;84.90;99915.44;10436044;28;20579;-79
2023/08/01 13:10:53;;;;;;;5.90;2.80;;;;;;;24.53;93.11;99917.09;10433091;28;20062;-79
2023/08/01 13:15:56;;;;;;;9.57;2.60;;;;;;;23.82;100.00;99907.16;10422338;28;20424;-78
2023/08/01 13:20:57;;;;;;;7.18;2.90;;;;;;;22.18;100.00;99910.19;10426881;28;20040;-79
2023/08/01 13:26:01;;;;;;;5.70;2.33;;;;;;;23.34;100.00;99912.63;10405999;28;20405;-78
2023/08/01 13:31:02;;;;;;;6.10;1.95;;;;;;;25.02;100.00;99907.81;10440278;28;20037;-79
2023/08/01 13:36:06;;;;;;;6.17;3.87;;;;;;;24.76;100.00;99917.44;10442173;28;20385;-78
2023/08/01 13:41:07;;;;;;;14.07;3.05;;;;;;;23.64;100.00;99915.56;10478420;28;20036;-78
2023/08/01 13:46:13;;;;;;;7.83;3.63;;;;;;;23.53;100.00;99918.47;10483379;28;20131;-79
2023/08/01 13:51:14;;;;;;;9.10;3.03;;;;;;;23.07;100.00;99923.78;10488339;28;20047;-79
2023/08/01 13:56:14;;;;;;;11.27;2.77;;;;;;;22.72;100.00;99926.22;10500257;28;20500;-79
2023/08/01 14:01:15;;;;;;;6.93;2.57;;;;;;;23.69;100.00;99927.91;10448916;28;20128;-79
2023/08/01 14:06:15;;;;;;;5.93;2.03;;;;;;;24.39;87.68;99929.03;10442487;28;20044;-79
2023/08/01 14:11:16;;;;;;;7.97;3.00;;;;;;;24.98;86.59;99927.56;10431117;28;20124;-78
2023/08/01 14:16:17;;;;;;;3.13;1.50;;;;;;;24.09;82.03;99936.88;10457024;28;20103;-79
2023/08/01 14:21:17;;;;;;;7.00;2.30;;;;;;;22.21;100.00;99944.78;10454703;28;20045;-79
2023/08/01 14:26:18;;;;;;;14.33;1.77;;;;;;;21.40;100.00;99938.69;10437689;28;20041;-79
2023/08/01 14:31:19;;;;;;;8.10;2.60;;;;;;;21.87;100.00;99948.78;10441441;28;20049;-79
2023/08/01 14:36:19;;;;;;;4.87;1.60;;;;;;;22.30;100.00;99945.50;10474014;28;20136;-79
2023/08/01 14:41:19;;;;;;;9.20;3.57;;;;;;;22.97;100.00;99959.53;10474225;28;20053;-78
2023/08/01 14:46:20;;;;;;;4.63;2.07;;;;;;;23.41;100.00;99957.84;10429207;28;20090;-78
2023/08/01 14:51:21;;;;;;;6.17;1.70;;;;;;;21.95;100.00;99962.03;10439234;28;20541;-78
2023/08/01 14:56:21;;;;;;;7.57;1.97;;;;;;;20.50;100.00;99973.25;10440645;28;20048;-77
2023/08/01 15:01:22;;;;;;;6.65;2.00;;;;;;;19.68;100.00;99966.59;10441818;28;20129;-78
2023/08/01 15:06:24;;;;;;;9.70;4.13;;;;;;;19.56;100.00;99966.66;10433040;28;20040;-79
2023/08/01 15:11:24;;;;;;;;;;;;;;;21.37;100.00;99983.13;10439967;28;20065;-80
2023/08/01 15:16:25;;;;;;;8.87;2.93;;;;;;;21.89;100.00;99964.78;10440233;28;20048;-79
2023/08/01 15:21:26;;;;;;;13.85;3.22;;;;;;;21.05;100.00;99971.88;10441460;28;20354;-79
2023/08/01 15:26:27;;;;;;;12.48;2.75;;;;;;;20.32;100.00;99960.94;10439586;28;20033;-78
2023/08/01 15:31:27;;;;;;;8.40;3.00;;;;;;;19.93;100.00;99971.81;10436837;28;20060;-79
2023/08/01 15:36:28;;;;;;;6.43;2.17;;;;;;;19.77;100.00;99968.31;10441323;28;20052;-78
2023/08/01 15:41:28;;;;;;;7.88;1.88;;;;;;;19.98;100.00;99966.47;10403462;28;20432;-79
2023/08/01 15:46:29;;;;;;;6.65;1.90;;;;;;;20.30;100.00;99970.72;10444856;28;20081;-79
2023/08/01 15:51:30;;;;;;;3.67;2.38;;;;;;;20.34;100.00;99970.69;10483691;28;20492;-80
2023/08/01 15:56:31;;;;;;;7.80;2.45;;;;;;;19.77;100.00;99976.28;10439230;28;20183;-82
2023/08/01 16:01:32;;;;;;;3.58;1.67;;;;;;;19.36;100.00;99981.72;10444662;28;20130;-80
2023/08/01 16:06:32;;;;;;;6.25;2.35;;;;;;;19.20;100.00;99991.50;10448338;28;20060;-79
2023/08/01 16:11:33;;;;;;;3.15;1.50;;;;;;;18.98;100.00;100001.25;10446096;28;20043;-79
2023/08/01 16:16:33;;;;;;;16.33;2.78;;;;;;;18.99;100.00;100010.97;10446286;28;20124;-79
2023/08/01 16:21:34;;;;;;;3.22;1.27;;;;;;;19.27;100.00;99997.66;10446069;28;20090;-80
2023/08/01 16:26:34;;;;;;;4.18;1.45;;;;;;;19.44;100.00;100007.34;10414267;28;20040;-80
2023/08/01 16:31:35;;;;;;;6.85;2.40;;;;;;;19.36;100.00;99997.63;10444423;28;20040;-79
2023/08/01 16:36:35;;;;;;;4.88;1.73;;;;;;;19.31;100.00;100011.81;10446990;28;20116;-80
2023/08/01 16:41:36;;;;;;;3.55;2.70;;;;;;;19.17;100.00;100012.72;10427580;28;20159;-79
2023/08/01 16:46:36;;;;;;;8.02;2.50;;;;;;;18.89;100.00;100007.41;10444798;28;20036;-79
2023/08/01 16:51:37;;;;;;;4.40;1.50;;;;;;;18.86;100.00;100009.16;10428004;28;20037;-80
2023/08/01 16:56:37;;;;;;;6.70;3.00;;;;;;;18.89;100.00;100022.41;10436052;28;20029;-79
2023/08/01 17:01:38;;;;;;;3.38;2.17;;;;;;;18.88;100.00;100016.25;10439222;28;20048;-79
2023/08/01 17:06:39;;;;;;;7.53;1.90;;;;;;;18.75;100.00;100011.84;10472975;28;20389;-79
2023/08/01 17:11:39;;;;;;;12.30;2.28;;;;;;;18.52;100.00;100017.09;10480475;28;20093;-79
2023/08/01 17:16:40;;;;;;;5.60;2.03;;;;;;;18.12;100.00;100021.41;10477423;28;20045;-79
2023/08/01 17:21:41;;;;;;;11.77;4.05;;;;;;;17.72;100.00;100019.47;10475851;28;20036;-79
2023/08/01 17:26:42;;;;;;;7.22;2.00;;;;;;;17.81;100.00;100018.63;10486604;28;20049;-85
2023/08/01 17:31:43;;;;;;;9.27;3.17;;;;;;;17.72;100.00;100019.47;10503226;28;20052;-80
2023/08/01 17:36:43;;;;;;;5.18;2.83;;;;;;;17.61;100.00;100018.53;10485883;28;21656;-80
2023/08/01 17:41:44;;;;;;;10.80;3.78;;;;;;;17.67;100.00;100017.69;10485784;28;20514;-80
2023/08/01 17:46:44;;;;;;;8.52;1.85;;;;;;;17.58;100.00;100022.03;10484689;28;20128;-80
2023/08/01 17:51:45;;;;;;;4.07;1.73;;;;;;;17.44;100.00;100021.09;10476689;28;20047;-81
2023/08/01 17:56:45;;;;;;;6.80;2.10;;;;;;;17.30;100.00;100024.53;10483271;28;20050;-80
2023/08/01 18:01:47;;;;;;;5.82;2.10;;;;;;;17.22;100.00;100025.38;10465392;28;20528;-81
2023/08/01 18:06:47;;;;;;;5.87;2.27;;;;;;;17.12;100.00;100032.31;10483948;28;20036;-80
2023/08/01 18:11:48;;;;;;;10.25;1.90;;;;;;;17.08;100.00;100044.66;10481807;28;20377;-80
2023/08/01 18:16:48;;;;;;;4.22;2.20;;;;;;;17.02;100.00;100041.97;10483764;28;20487;-80
2023/08/01 18:21:49;;;;;;;5.45;2.25;;;;;;;16.93;100.00;100050.66;10482240;28;20127;-80
2023/08/01 18:26:49;;;;;;;6.53;2.63;;;;;;;16.83;100.00;100046.16;10478067;28;20123;-80
2023/08/01 18:31:50;;;;;;;8.82;2.08;;;;;;;16.79;100.00;100050.53;10482696;28;20035;-80
2023/08/01 18:36:50;;;;;;;8.18;2.53;;;;;;;16.74;100.00;100050.50;10479769;28;20071;-80
2023/08/01 18:41:53;;;;;;;5.90;2.17;;;;;;;16.66;100.00;100049.53;10495288;28;20400;-80
2023/08/01 18:46:54;;;;;;;3.88;2.10;;;;;;;16.54;100.00;100060.88;10476744;28;20068;-80
2023/08/01 18:51:54;;;;;;;4.30;1.83;;;;;;;16.48;100.00;100071.38;10484022;28;20598;-81
2023/08/01 18:56:55;;;;;;;9.73;2.35;;;;;;;16.46;100.00;100074.84;10479659;28;20044;-81
2023/08/01 19:01:55;;;;;;;6.60;1.60;;;;;;;16.42;100.00;100081.88;10480688;28;20045;-81
2023/08/01 19:06:56;;;;;;;8.93;3.10;;;;;;;16.35;100.00;100080.91;10476527;28;20044;-80
2023/08/01 19:11:57;;;;;;;9.95;2.25;;;;;;;16.21;100.00;100098.34;10480463;28;20436;-80
2023/08/01 19:16:58;;;;;;;8.23;2.20;;;;;;;16.06;100.00;100109.59;10481322;28;20469;-81
2023/08/01 19:21:59;;;;;;;5.07;2.22;;;;;;;15.99;100.00;100109.53;10471547;28;20040;-82
2023/08/01 19:26:59;;;;;;;17.17;2.80;;;;;;;15.92;100.00;100109.41;10489261;28;20389;-81
2023/08/01 19:32:00;;;;;;;9.20;3.05;;;;;;;15.85;100.00;100113.69;10468165;28;20036;-80
2023/08/01 19:37:01;;;;;;;8.48;4.13;;;;;;;15.76;100.00;100116.19;10428410;28;20076;-78
2023/08/01 19:42:02;;;;;;;15.45;2.92;;;;;;;15.57;100.00;100131.75;10447954;28;20048;-80
2023/08/01 19:47:03;;;;;;;7.13;2.92;;;;;;;15.39;100.00;100129.69;10428909;28;20041;-78
2023/08/01 19:52:05;;;;;;;7.15;2.17;;;;;;;15.37;100.00;100134.97;10449000;28;20477;-79
2023/08/01 19:57:06;;;;;;;6.43;2.53;;;;;;;15.28;100.00;100142.72;10430054;28;20409;-78
2023/08/01 20:02:06;;;;;;;6.18;2.50;;;;;;;15.24;100.00;100143.53;10447441;28;20037;-81
2023/08/01 20:07:07;;;;;;;8.80;3.67;;;;;;;15.17;100.00;100133.72;10446545;28;20044;-79
2023/08/01 20:12:08;;;;;;;7.10;2.13;;;;;;;15.04;100.00;100133.53;10437528;28;20059;-80
2023/08/01 20:17:08;;;;;;;8.52;2.17;;;;;;;14.89;100.00;100139.38;10444346;28;20045;-79
2023/08/01 20:22:09;;;;;;;4.43;2.22;;;;;;;14.81;100.00;100143.63;10417313;28;20037;-79
2023/08/01 20:27:09;;;;;;;8.68;2.63;;;;;;;14.67;100.00;100141.59;10444132;28;20047;-79
2023/08/01 20:32:10;;;;;;;5.70;2.97;;;;;;;14.45;100.00;100145.56;10445024;28;20392;-79
2023/08/01 20:37:11;;;;;;;6.18;2.60;;;;;;;14.18;100.00;100143.22;10442094;28;20053;-80
2023/08/01 20:42:11;;;;;;;9.60;2.40;;;;;;;13.93;100.00;100150.56;10438907;28;20102;-82
2023/08/01 20:47:12;;;;;;;7.97;4.47;;;;;;;13.81;100.00;100143.31;10438145;28;20049;-81
2023/08/01 20:52:12;;;;;;;13.18;3.67;;;;;;;13.68;100.00;100141.25;10434559;28;20039;-83
2023/08/01 20:57:13;;;;;;;13.10;8.00;;;;;;;13.48;100.00;100145.16;10446510;28;20037;-80
2023/08/01 21:02:13;;;;;;;17.63;4.05;;;;;;;13.35;100.00;100140.44;10442871;28;20045;-81
2023/08/01 21:07:14;;;;;;;8.00;2.80;;;;;;;13.18;100.00;100140.91;10425816;28;20037;-78
2023/08/01 21:12:14;;;;;;;13.55;4.97;;;;;;;13.01;100.00;100132.59;10441455;28;20042;-78
2023/08/01 21:17:15;;;;;;;5.45;3.25;;;;;;;12.88;100.00;100134.00;10445386;28;20103;-78
2023/08/01 21:22:15;;;;;;;11.30;3.90;;;;;;;12.84;100.00;100133.91;10419408;28;20060;-78
2023/08/01 21:27:16;;;;;;;9.93;3.42;;;;;;;12.84;100.00;100136.53;10444543;28;20041;-79
2023/08/01 21:32:16;;;;;;;12.73;6.07;;;;;;;12.83;100.00;100135.63;10438173;28;20052;-79
2023/08/01 21:37:18;;;;;;;8.75;4.20;;;;;;;12.77;100.00;100122.31;10423175;28;20037;-79
2023/08/01 21:42:18;;;;;;;8.93;3.92;;;;;;;12.64;100.00;100123.75;10405056;28;20086;-78
2023/08/01 21:47:19;;;;;;;9.93;3.33;;;;;;;12.61;100.00;100135.03;10444337;28;20135;-79
2023/08/01 21:52:19;;;;;;;8.32;4.38;;;;;;;12.60;100.00;100140.25;10435377;28;20067;-78
2023/08/01 21:57:20;;;;;;;9.13;4.38;;;;;;;12.68;100.00;100129.94;10466469;28;20060;-78
2023/08/01 22:02:21;;;;;;;7.63;4.53;;;;;;;12.80;100.00;100124.16;10439578;28;20041;-79
2023/08/01 22:07:22;;;;;;;11.07;3.53;;;;;;;13.00;100.00;100124.66;10439249;28;20433;-80
2023/08/01 22:12:22;;;;;;;8.68;4.40;;;;;;;13.10;100.00;100117.94;10414859;28;20045;-80
2023/08/01 22:17:23;;;;;;;12.98;4.65;;;;;;;13.09;100.00;100117.03;10422330;28;20493;-80
2023/08/01 22:22:24;;;;;;;7.13;4.43;;;;;;;13.04;100.00;100113.38;10444463;28;20376;-80
2023/08/01 22:27:25;;;;;;;11.93;4.60;;;;;;;13.12;100.00;100101.34;10442612;28;20423;-80
2023/08/01 22:32:26;;;;;;;22.75;5.18;;;;;;;13.23;100.00;100109.50;10444977;28;20114;-80
2023/08/01 22:37:27;;;;;;;14.52;5.57;;;;;;;13.22;100.00;100108.59;10422503;28;20037;-80
2023/08/01 22:42:27;;;;;;;6.10;3.53;;;;;;;13.26;100.00;100112.19;10438858;28;20084;-80
2023/08/01 22:47:28;;;;;;;8.45;3.30;;;;;;;13.20;100.00;100101.53;10440367;28;20131;-80